Time;durP1;ratioP1;P1;durP2;ratioP2;P2;SDS_P1;SDS_P2;PMS_P1;PMS_P2;Temp;Humidity;BMP_temperature;BMP_pressure;BME280_temperature;BME280_humidity;BME280_pressure;Samples;Min_cycle;Max_cycle;Signal;HPM_P1;HPM_P2
2022/05/21 00:00:26;;;;;;;2.67;2.00;;;21.70;89.20;;;;;;4943433;29;20881;-73
2022/05/21 00:02:53;;;;;;;2.07;1.80;;;21.60;89.20;;;;;;4943481;29;20438;-73
2022/05/21 00:05:26;;;;;;;2.13;1.90;;;21.60;89.20;;;;;;4939516;29;20448;-73
2022/05/21 00:07:52;;;;;;;2.40;2.13;;;21.60;89.20;;;;;;4938561;29;20914;-73
2022/05/21 00:10:21;;;;;;;2.37;1.87;;;21.60;89.20;;;;;;4943913;28;20450;-73
2022/05/21 00:12:48;;;;;;;2.30;2.10;;;21.60;89.20;;;;;;4942784;29;21028;-73
2022/05/21 00:15:23;;;;;;;2.17;1.90;;;21.50;89.10;;;;;;4948431;29;21011;-73
2022/05/21 00:17:49;;;;;;;5.93;2.10;;;21.50;89.10;;;;;;4945750;29;20458;-73
2022/05/21 00:23:10;;;;;;;3.20;2.27;;;21.50;89.20;;;;;;4950358;28;20438;-73
2022/05/21 00:25:39;;;;;;;2.63;1.87;;;21.50;89.20;;;;;;4978801;22;20941;-73
2022/05/21 00:28:05;;;;;;;2.53;1.90;;;21.50;89.30;;;;;;5019969;28;20458;-73
2022/05/21 00:30:32;;;;;;;4.73;2.17;;;21.40;89.20;;;;;;5012601;28;20447;-73
2022/05/21 00:32:59;;;;;;;3.00;1.70;;;21.40;89.20;;;;;;4995950;28;20501;-73
2022/05/21 00:35:25;;;;;;;1.93;1.60;;;21.40;89.20;;;;;;5028141;28;20418;-73
2022/05/21 00:37:51;;;;;;;3.60;2.00;;;21.40;89.20;;;;;;5017673;28;20458;-73
2022/05/21 00:40:17;;;;;;;2.50;2.10;;;21.40;89.20;;;;;;5023731;28;20485;-73
2022/05/21 00:42:46;;;;;;;3.40;1.90;;;21.40;89.20;;;;;;5016454;28;20788;-73
2022/05/21 00:45:15;;;;;;;4.13;2.33;;;21.30;89.10;;;;;;5018980;28;20426;-73
2022/05/21 00:47:41;;;;;;;2.30;2.10;;;21.30;89.10;;;;;;5030626;28;20422;-72
2022/05/21 00:50:12;;;;;;;5.20;2.10;;;21.30;89.10;;;;;;5004080;28;20459;-73
2022/05/21 00:52:39;;;;;;;2.93;2.27;;;21.30;89.10;;;;;;4997631;28;20445;-73
2022/05/21 00:55:20;;;;;;;2.83;2.20;;;21.30;89.00;;;;;;5013498;28;20471;-73
2022/05/21 01:00:51;;;;;;;2.13;1.93;;;21.20;89.00;;;;;;5012156;28;20546;-73
2022/05/21 01:03:20;;;;;;;3.00;2.20;;;21.20;89.10;;;;;;5015638;28;20517;-73
2022/05/21 01:05:47;;;;;;;3.70;2.00;;;21.20;89.10;;;;;;5025481;28;21030;-73
2022/05/21 01:08:14;;;;;;;2.80;2.20;;;21.20;89.10;;;;;;5014770;28;20438;-73
2022/05/21 01:10:52;;;;;;;2.60;2.23;;;21.20;89.10;;;;;;5020523;28;20955;-72
2022/05/21 01:13:25;;;;;;;2.37;2.17;;;21.20;89.10;;;;;;5010962;28;20434;-73
2022/05/21 01:15:55;;;;;;;2.37;2.10;;;21.20;89.20;;;;;;5018583;28;20433;-73
2022/05/21 01:18:23;;;;;;;2.60;2.40;;;21.10;89.00;;;;;;5012846;28;20981;-73
2022/05/21 01:20:58;;;;;;;2.90;1.90;;;21.10;89.10;;;;;;5017611;28;20476;-73
2022/05/21 01:23:30;;;;;;;4.30;1.87;;;21.10;89.10;;;;;;5028409;28;20415;-73
2022/05/21 01:26:00;;;;;;;3.77;2.20;;;21.10;89.10;;;;;;5012151;28;20960;-73
2022/05/21 01:28:30;;;;;;;2.10;1.67;;;21.00;89.00;;;;;;5012320;28;20418;-73
2022/05/21 01:30:58;;;;;;;2.27;2.07;;;21.00;89.00;;;;;;5013308;28;20454;-73
2022/05/21 01:33:31;;;;;;;2.13;1.93;;;21.00;89.10;;;;;;5013482;28;20423;-73
2022/05/21 01:35:58;;;;;;;4.20;2.17;;;21.00;89.10;;;;;;5013619;28;20430;-73
2022/05/21 01:38:29;;;;;;;2.23;2.03;;;21.00;89.10;;;;;;4995447;28;21041;-73
2022/05/21 01:40:59;;;;;;;4.10;2.13;;;21.00;89.20;;;;;;5012403;28;20419;-73
2022/05/21 01:46:17;;;;;;;3.13;1.87;;;20.90;89.00;;;;;;5012426;28;20427;-73
2022/05/21 01:48:46;;;;;;;2.00;1.87;;;20.90;89.10;;;;;;5013059;28;20447;-73
2022/05/21 01:51:14;;;;;;;6.70;1.90;;;20.90;89.10;;;;;;5011818;28;20443;-73
2022/05/21 01:53:43;;;;;;;2.80;1.70;;;20.90;89.20;;;;;;5028398;28;20485;-72
2022/05/21 01:56:11;;;;;;;2.27;2.07;;;20.90;89.20;;;;;;5012964;28;20504;-73
2022/05/21 01:58:38;;;;;;;4.03;2.13;;;20.90;89.20;;;;;;5011210;28;20529;-72
2022/05/21 02:01:06;;;;;;;3.13;2.40;;;20.90;89.20;;;;;;5011851;28;20439;-73
2022/05/21 02:03:32;;;;;;;3.63;1.90;;;20.80;89.20;;;;;;5011693;28;20428;-73
2022/05/21 02:06:03;;;;;;;4.43;2.10;;;20.80;89.90;;;;;;5013312;28;20501;-73
2022/05/21 02:08:32;;;;;;;2.03;1.83;;;20.80;89.10;;;;;;5011461;28;20773;-73
2022/05/21 02:10:58;;;;;;;1.70;1.60;;;20.80;89.20;;;;;;5012212;28;20441;-73
2022/05/21 02:13:27;;;;;;;2.70;2.13;;;20.80;89.20;;;;;;5011785;28;20435;-73
2022/05/21 02:15:53;;;;;;;2.20;2.00;;;20.70;89.10;;;;;;5011837;28;20538;-73
2022/05/21 02:18:20;;;;;;;3.33;1.90;;;20.80;89.20;;;;;;5011745;28;20828;-73
2022/05/21 02:20:48;;;;;;;1.87;1.70;;;20.70;89.20;;;;;;5013535;28;20425;-73
2022/05/21 02:23:19;;;;;;;2.23;2.03;;;20.70;89.10;;;;;;5011886;28;20417;-73
2022/05/21 02:25:47;;;;;;;2.17;1.73;;;20.70;89.10;;;;;;5012953;28;20776;-73
2022/05/21 02:28:13;;;;;;;2.20;2.00;;;20.70;89.10;;;;;;5012371;28;20427;-73
2022/05/21 02:30:40;;;;;;;4.90;2.33;;;20.60;88.90;;;;;;5011275;28;20458;-73
2022/05/21 02:33:08;;;;;;;1.70;1.60;;;20.60;88.80;;;;;;5011499;28;20567;-73
2022/05/21 02:35:36;;;;;;;3.83;2.00;;;20.60;89.00;;;;;;5020213;28;20438;-73
2022/05/21 02:40:51;;;;;;;3.13;1.60;;;20.60;88.80;;;;;;4988245;28;20430;-73
2022/05/21 02:43:24;;;;;;;5.00;1.60;;;20.50;88.80;;;;;;5011569;28;20416;-73
2022/05/21 02:45:52;;;;;;;2.17;1.73;;;20.50;88.70;;;;;;5012542;28;20983;-72
2022/05/21 02:48:18;;;;;;;3.57;1.93;;;20.50;88.70;;;;;;5012464;28;20551;-72
2022/05/21 02:50:44;;;;;;;4.47;1.80;;;20.50;88.70;;;;;;5012241;28;20205;-73
2022/05/21 02:53:18;;;;;;;2.20;1.70;;;20.50;88.70;;;;;;5011097;28;20448;-72
2022/05/21 02:55:46;;;;;;;3.07;2.17;;;20.50;88.70;;;;;;5011407;28;20460;-73
2022/05/21 02:58:12;;;;;;;3.40;2.17;;;20.40;88.50;;;;;;5027042;28;20860;-73
2022/05/21 03:00:39;;;;;;;3.90;2.00;;;20.40;88.30;;;;;;5012142;28;20483;-73
2022/05/21 03:03:05;;;;;;;3.20;2.10;;;20.40;88.50;;;;;;5012420;28;20548;-73
2022/05/21 03:05:35;;;;;;;3.77;1.87;;;20.40;88.50;;;;;;5011243;28;20491;-73
2022/05/21 03:10:20;;;;;;;2.67;2.20;;;20.40;88.60;;;;;;5010945;28;20931;-72
2022/05/21 03:10:53;;;;;;;5.17;2.47;;;20.30;88.40;;;;;;5012315;28;20445;-72
2022/05/21 03:13:23;;;;;;;7.13;1.67;;;20.30;88.50;;;;;;5026963;28;20423;-72
2022/05/21 03:15:49;;;;;;;3.80;2.00;;;20.30;88.50;;;;;;4994873;28;21441;-73
2022/05/21 03:18:18;;;;;;;3.60;2.43;;;20.30;88.40;;;;;;5012077;28;20448;-72
2022/05/21 03:20:46;;;;;;;3.00;1.70;;;20.30;88.30;;;;;;5010998;28;20462;-73
2022/05/21 03:23:14;;;;;;;3.40;2.10;;;20.20;88.10;;;;;;5010921;28;20421;-72
2022/05/21 03:25:41;;;;;;;5.17;2.10;;;20.20;88.20;;;;;;5012341;28;20523;-73
2022/05/21 03:28:07;;;;;;;4.07;2.10;;;20.20;88.10;;;;;;4994515;28;20914;-73
2022/05/21 03:30:36;;;;;;;3.30;2.17;;;20.20;88.20;;;;;;4994397;28;20444;-73
2022/05/21 03:33:05;;;;;;;2.53;1.90;;;20.20;88.30;;;;;;5010715;28;20422;-72
2022/05/21 03:35:33;;;;;;;4.80;2.03;;;20.10;88.20;;;;;;5011165;28;20428;-72
2022/05/21 03:38:00;;;;;;;2.90;2.30;;;20.10;88.30;;;;;;5010676;28;20425;-73
2022/05/21 03:40:29;;;;;;;3.10;2.00;;;20.10;88.40;;;;;;5026985;28;20451;-73
2022/05/21 03:42:57;;;;;;;3.43;2.40;;;20.10;88.40;;;;;;5010953;28;20413;-72
2022/05/21 03:45:24;;;;;;;5.73;2.23;;;20.10;88.40;;;;;;5011751;28;20420;-72
2022/05/21 03:47:51;;;;;;;3.80;1.80;;;20.10;88.40;;;;;;5017588;28;20948;-73
2022/05/21 03:50:22;;;;;;;4.87;2.50;;;20.10;88.40;;;;;;5029630;28;20444;-73
2022/05/21 03:52:48;;;;;;;3.80;2.30;;;20.10;88.40;;;;;;5014223;28;20444;-72
2022/05/21 03:55:17;;;;;;;5.03;2.13;;;20.10;88.40;;;;;;4998062;28;20961;-73
2022/05/21 03:57:45;;;;;;;7.07;2.10;;;20.00;88.40;;;;;;4997821;28;20414;-72
2022/05/21 04:00:17;;;;;;;5.70;2.30;;;20.00;88.40;;;;;;5013676;28;20875;-73
2022/05/21 04:02:43;;;;;;;3.93;2.60;;;20.00;88.40;;;;;;4997627;28;20464;-73
2022/05/21 04:05:13;;;;;;;5.43;2.40;;;20.00;88.50;;;;;;5013536;28;20421;-73
2022/05/21 04:07:39;;;;;;;3.13;2.20;;;20.00;88.50;;;;;;5015291;28;20422;-73
2022/05/21 04:10:09;;;;;;;5.27;2.70;;;20.00;88.50;;;;;;5015069;28;20976;-73
2022/05/21 04:12:37;;;;;;;3.80;2.20;;;19.90;88.40;;;;;;5015340;28;20479;-73
2022/05/21 04:15:05;;;;;;;3.53;2.00;;;19.90;88.40;;;;;;5013763;28;20425;-73
2022/05/21 04:17:35;;;;;;;4.80;2.50;;;19.90;88.40;;;;;;4997627;28;21188;-73
2022/05/21 04:20:06;;;;;;;4.40;2.70;;;19.90;88.50;;;;;;5030090;28;20469;-73
2022/05/21 04:22:34;;;;;;;6.23;2.47;;;19.90;88.60;;;;;;5013608;28;20451;-73
2022/05/21 04:25:05;;;;;;;3.70;2.13;;;19.90;88.60;;;;;;5013256;28;20892;-72
2022/05/21 04:27:39;;;;;;;4.63;2.17;;;19.80;88.40;;;;;;5013747;28;20423;-72
2022/05/21 04:30:19;;;;;;;5.00;2.40;;;19.90;88.60;;;;;;5013426;28;20559;-73
2022/05/21 04:32:46;;;;;;;3.00;1.90;;;19.90;88.60;;;;;;5014184;28;20415;-73
2022/05/21 04:35:16;;;;;;;3.40;2.37;;;19.80;88.50;;;;;;5029609;28;20416;-73
2022/05/21 04:37:43;;;;;;;2.20;2.00;;;19.80;88.50;;;;;;5013113;28;20471;-73
2022/05/21 04:40:16;;;;;;;4.00;3.07;;;19.80;88.60;;;;;;5014400;28;20528;-73
2022/05/21 04:42:45;;;;;;;2.90;2.43;;;19.80;88.60;;;;;;4997813;28;20504;-73
2022/05/21 04:45:12;;;;;;;6.93;2.30;;;19.80;88.60;;;;;;5014796;28;20557;-73
2022/05/21 04:47:41;;;;;;;4.23;2.40;;;19.80;88.60;;;;;;5014354;28;20430;-73
2022/05/21 04:50:10;;;;;;;5.57;2.13;;;19.70;88.60;;;;;;5013053;28;20523;-72
2022/05/21 04:52:37;;;;;;;4.93;2.87;;;19.70;88.50;;;;;;5013172;28;20425;-73
2022/05/21 04:55:07;;;;;;;4.07;2.60;;;19.70;88.60;;;;;;5014054;28;20953;-73
2022/05/21 04:57:33;;;;;;;5.73;2.17;;;19.70;88.50;;;;;;5012703;28;20446;-73
2022/05/21 05:00:03;;;;;;;3.60;2.37;;;19.70;88.60;;;;;;5013560;28;20559;-72
2022/05/21 05:02:31;;;;;;;4.00;2.47;;;19.60;88.40;;;;;;4996306;28;22231;-72
2022/05/21 05:04:57;;;;;;;6.40;2.50;;;19.70;88.70;;;;;;4996537;28;20432;-74
2022/05/21 05:07:26;;;;;;;4.23;2.40;;;19.60;88.50;;;;;;5012647;28;20448;-73
2022/05/21 05:09:52;;;;;;;9.60;2.40;;;19.60;88.50;;;;;;5029663;28;20504;-73
2022/05/21 05:12:18;;;;;;;3.60;2.17;;;19.60;88.60;;;;;;5016359;28;21272;-73
2022/05/21 05:14:46;;;;;;;5.23;3.30;;;19.60;88.60;;;;;;5034087;28;20246;-73
2022/05/21 05:17:13;;;;;;;3.67;2.70;;;19.60;88.60;;;;;;5034131;28;20492;-73
2022/05/21 05:19:42;;;;;;;4.57;2.67;;;19.60;88.60;;;;;;5032399;28;20558;-72
2022/05/21 05:22:11;;;;;;;3.90;2.50;;;19.60;88.60;;;;;;5013120;28;20575;-73
2022/05/21 05:24:46;;;;;;;4.37;2.50;;;19.60;88.70;;;;;;5029108;28;20416;-73
2022/05/21 05:27:18;;;;;;;6.67;3.30;;;19.60;88.60;;;;;;5013999;28;20968;-73
2022/05/21 05:29:46;;;;;;;4.53;2.83;;;19.60;88.70;;;;;;4996229;28;20457;-72
2022/05/21 05:32:14;;;;;;;4.10;2.77;;;19.50;88.60;;;;;;5012956;28;20433;-73
2022/05/21 05:34:40;;;;;;;4.20;2.93;;;19.50;88.60;;;;;;4996572;28;20431;-72
2022/05/21 05:37:06;;;;;;;7.50;3.20;;;19.50;88.60;;;;;;5013723;28;20914;-72
2022/05/21 05:39:32;;;;;;;7.40;2.83;;;19.50;88.60;;;;;;5012628;28;20205;-72
2022/05/21 05:42:01;;;;;;;5.40;2.97;;;19.50;88.60;;;;;;4996350;28;20769;-72
2022/05/21 05:44:29;;;;;;;5.87;2.80;;;19.50;88.60;;;;;;5012545;28;20767;-72
2022/05/21 05:46:55;;;;;;;5.87;3.40;;;19.50;88.70;;;;;;5013751;28;20408;-72
2022/05/21 05:49:26;;;;;;;5.20;3.30;;;19.50;88.70;;;;;;5013562;28;20441;-72
2022/05/21 05:51:54;;;;;;;5.07;3.00;;;19.50;88.70;;;;;;5012290;28;20415;-72
2022/05/21 05:54:22;;;;;;;8.17;3.60;;;19.40;88.60;;;;;;4996036;28;20808;-72
2022/05/21 05:56:48;;;;;;;5.20;3.43;;;19.40;88.70;;;;;;5013406;28;20427;-72
2022/05/21 06:04:48;;;;;;;5.60;3.20;;;19.40;88.80;;;;;;5028266;28;20937;-72
2022/05/21 06:07:17;;;;;;;5.63;3.83;;;19.40;88.90;;;;;;5013497;28;20458;-72
2022/05/21 06:09:43;;;;;;;5.70;3.57;;;19.40;88.90;;;;;;5011707;28;20461;-72
2022/05/21 06:12:11;;;;;;;5.47;3.67;;;19.40;88.90;;;;;;5012058;28;20502;-72
2022/05/21 06:14:39;;;;;;;6.40;3.80;;;19.40;89.00;;;;;;5012190;28;20518;-72
2022/05/21 06:17:09;;;;;;;5.10;3.20;;;19.30;88.90;;;;;;5013239;28;20635;-72
2022/05/21 06:19:38;;;;;;;7.70;4.00;;;19.30;88.90;;;;;;4995526;28;20467;-72
2022/05/21 06:22:04;;;;;;;4.80;3.20;;;19.30;88.90;;;;;;5012594;28;20898;-72
2022/05/21 06:24:36;;;;;;;4.10;3.30;;;19.30;89.00;;;;;;5011387;28;20416;-72
2022/05/21 06:27:05;;;;;;;7.40;3.80;;;19.30;89.00;;;;;;5011998;28;20432;-72
2022/05/21 06:29:37;;;;;;;6.67;3.30;;;19.30;89.00;;;;;;5012994;28;20448;-72
2022/05/21 06:32:07;;;;;;;5.60;3.90;;;19.30;89.10;;;;;;5011909;28;20938;-72
2022/05/21 06:34:35;;;;;;;7.40;3.33;;;19.30;89.20;;;;;;5013017;28;20837;-72
2022/05/21 06:37:05;;;;;;;6.50;3.30;;;19.30;89.20;;;;;;4995998;28;20524;-72
2022/05/21 06:39:33;;;;;;;6.83;3.80;;;19.30;89.10;;;;;;5011662;28;21050;-72
2022/05/21 06:41:59;;;;;;;5.60;3.43;;;19.30;89.20;;;;;;5027976;28;20441;-72
2022/05/21 06:44:26;;;;;;;5.13;3.50;;;19.30;89.30;;;;;;5012902;28;20814;-72
2022/05/21 06:46:56;;;;;;;6.57;3.30;;;19.30;89.30;;;;;;5011729;28;20416;-72
2022/05/21 06:49:26;;;;;;;5.33;3.43;;;19.30;89.30;;;;;;4994950;28;20216;-72
2022/05/21 06:51:54;;;;;;;6.53;3.77;;;19.30;89.30;;;;;;5012618;28;20452;-72
2022/05/21 06:54:21;;;;;;;4.13;3.20;;;19.30;89.30;;;;;;5011734;28;20519;-72
2022/05/21 06:56:47;;;;;;;5.50;3.80;;;19.30;89.30;;;;;;5012679;28;20423;-72
2022/05/21 06:59:13;;;;;;;5.50;3.40;;;19.30;89.40;;;;;;5011595;28;20546;-74
2022/05/21 07:01:40;;;;;;;4.87;3.30;;;19.20;89.30;;;;;;5011366;28;20515;-73
2022/05/21 07:04:13;;;;;;;4.47;3.77;;;19.20;89.30;;;;;;5011295;28;20461;-73
2022/05/21 07:09:26;;;;;;;4.23;3.40;;;19.20;89.30;;;;;;5025550;28;20447;-73
2022/05/21 07:11:52;;;;;;;6.10;3.70;;;19.20;89.30;;;;;;4995592;28;20416;-71
2022/05/21 07:14:22;;;;;;;4.30;3.67;;;19.20;89.30;;;;;;4995796;28;20428;-72
2022/05/21 07:16:49;;;;;;;5.90;4.07;;;19.20;89.40;;;;;;4995289;28;20435;-73
2022/05/21 07:19:15;;;;;;;6.73;4.03;;;19.20;89.40;;;;;;4994850;28;20492;-73
2022/05/21 07:21:41;;;;;;;8.33;4.07;;;19.20;89.50;;;;;;4997197;28;20517;-72
2022/05/21 07:24:10;;;;;;;9.00;3.23;;;19.20;89.40;;;;;;5015200;28;20416;-71
2022/05/21 07:26:43;;;;;;;5.00;3.87;;;19.20;89.50;;;;;;5016346;28;20427;-72
2022/05/21 07:29:08;;;;;;;9.03;4.10;;;19.20;90.10;;;;;;5015222;28;20546;-73
2022/05/21 07:31:36;;;;;;;5.23;3.57;;;19.20;89.50;;;;;;5014120;28;20455;-73
2022/05/21 07:34:02;;;;;;;5.10;3.90;;;19.20;89.50;;;;;;5015578;28;20465;-73
2022/05/21 07:36:31;;;;;;;5.40;4.23;;;19.20;89.50;;;;;;5014961;28;21012;-73
2022/05/21 07:39:04;;;;;;;5.37;4.20;;;19.20;89.60;;;;;;5015829;28;20495;-74
2022/05/21 07:41:34;;;;;;;4.90;3.97;;;19.10;89.60;;;;;;5015641;28;20984;-73
2022/05/21 07:44:03;;;;;;;9.17;4.20;;;19.10;89.50;;;;;;5017009;28;20419;-73
2022/05/21 07:46:28;;;;;;;9.23;4.23;;;19.10;89.60;;;;;;5031303;28;20423;-73
2022/05/21 07:48:54;;;;;;;6.77;4.60;;;19.20;89.70;;;;;;5021458;28;20987;-73
2022/05/21 07:51:20;;;;;;;10.70;4.60;;;19.10;89.60;;;;;;5016197;28;20448;-73
2022/05/21 07:53:49;;;;;;;14.80;4.60;;;19.10;89.70;;;;;;5014410;28;20485;-73
2022/05/21 07:56:17;;;;;;;6.80;4.50;;;19.10;89.70;;;;;;5014037;28;20416;-73
2022/05/21 07:58:47;;;;;;;9.27;4.83;;;19.10;89.70;;;;;;4997881;28;20526;-73
2022/05/21 08:01:13;;;;;;;9.40;4.47;;;19.10;89.80;;;;;;5015246;28;20454;-73
2022/05/21 08:03:39;;;;;;;8.33;4.87;;;19.10;89.80;;;;;;5030550;28;20488;-73
2022/05/21 08:06:05;;;;;;;5.60;5.00;;;19.10;89.80;;;;;;4998005;28;20874;-73
2022/05/21 08:08:36;;;;;;;7.03;4.73;;;19.10;89.80;;;;;;4998050;28;20279;-73
2022/05/21 08:11:02;;;;;;;12.23;4.77;;;19.10;89.80;;;;;;5014143;28;20611;-73
2022/05/21 08:13:28;;;;;;;6.63;4.67;;;19.10;89.90;;;;;;4997565;28;20863;-74
2022/05/21 08:15:54;;;;;;;10.67;5.53;;;19.10;89.90;;;;;;5014104;28;20448;-74
2022/05/21 08:18:20;;;;;;;6.83;4.50;;;19.10;89.90;;;;;;5030177;28;20632;-75
2022/05/21 08:20:50;;;;;;;5.13;4.60;;;19.10;90.00;;;;;;5013483;28;20473;-71
2022/05/21 08:28:51;;;;;;;8.90;5.03;;;19.10;90.00;;;;;;4997098;28;20815;-72
2022/05/21 08:31:22;;;;;;;5.67;5.00;;;19.10;90.00;;;;;;5012702;28;20442;-72
2022/05/21 08:33:51;;;;;;;10.07;5.20;;;19.10;90.10;;;;;;5028841;28;20423;-72
2022/05/21 08:36:17;;;;;;;7.43;5.43;;;19.10;90.10;;;;;;5012945;28;20778;-73
2022/05/21 08:38:46;;;;;;;6.10;5.00;;;19.10;90.10;;;;;;5014115;28;20465;-72
2022/05/21 08:41:25;;;;;;;8.07;4.97;;;19.10;90.10;;;;;;4997342;28;20401;-74
2022/05/21 08:44:12;;;;;;;12.87;6.00;;;19.10;90.20;;;;;;4994530;28;20449;-74
2022/05/21 08:47:13;;;;;;;10.27;4.73;;;19.10;90.20;;;;;;4995804;28;20463;-75
2022/05/21 08:49:59;;;;;;;7.70;4.77;;;19.10;90.20;;;;;;5009671;28;21255;-76
2022/05/21 08:52:49;;;;;;;10.23;5.27;;;19.00;90.20;;;;;;4996631;28;20420;-72
2022/05/21 08:55:28;;;;;;;9.10;4.77;;;19.00;90.20;;;;;;4996879;28;20436;-73
2022/05/21 08:58:00;;;;;;;5.70;5.00;;;19.10;90.30;;;;;;5013752;28;20499;-72
2022/05/21 09:00:37;;;;;;;8.17;4.87;;;19.10;90.30;;;;;;5012305;28;20463;-75
2022/05/21 09:03:11;;;;;;;6.50;4.87;;;19.10;90.30;;;;;;5013213;28;20928;-71
2022/05/21 09:05:41;;;;;;;6.80;5.47;;;19.10;90.30;;;;;;5012835;28;20393;-71
2022/05/21 09:08:27;;;;;;;7.87;5.63;;;19.10;90.30;;;;;;5028235;28;20773;-71
2022/05/21 09:11:03;;;;;;;7.97;5.30;;;19.10;90.30;;;;;;5011197;28;20420;-71
2022/05/21 09:13:47;;;;;;;10.83;6.40;;;19.10;90.20;;;;;;5013326;28;20485;-70
2022/05/21 09:19:08;;;;;;;7.07;4.60;;;19.10;90.30;;;;;;5028502;28;20896;-71
2022/05/21 09:21:46;;;;;;;11.07;6.73;;;19.10;90.30;;;;;;5012691;28;20839;-71
2022/05/21 09:24:36;;;;;;;7.60;5.07;;;19.10;90.30;;;;;;5028370;28;20420;-71
2022/05/21 09:27:06;;;;;;;8.40;5.03;;;19.10;90.30;;;;;;5028867;28;20904;-71
2022/05/21 09:29:37;;;;;;;9.10;5.67;;;19.10;90.30;;;;;;5013264;28;20977;-71
2022/05/21 09:32:30;;;;;;;7.50;4.70;;;19.10;90.30;;;;;;5013240;28;20893;-71
2022/05/21 09:35:17;;;;;;;9.37;5.53;;;19.10;90.30;;;;;;5012122;28;20423;-71
2022/05/21 09:37:44;;;;;;;8.90;5.30;;;19.10;90.30;;;;;;5018485;28;20471;-71
2022/05/21 09:40:34;;;;;;;8.37;5.00;;;19.20;90.40;;;;;;5012109;28;20493;-71
2022/05/21 09:46:16;;;;;;;9.77;5.90;;;19.20;90.30;;;;;;5012802;28;20448;-71
2022/05/21 09:48:48;;;;;;;7.80;5.90;;;19.20;90.30;;;;;;5011636;28;20505;-70
2022/05/21 09:51:29;;;;;;;8.20;6.00;;;19.20;90.30;;;;;;5012118;28;20419;-71
2022/05/21 09:53:58;;;;;;;8.03;4.77;;;19.20;90.20;;;;;;5012787;28;20421;-71
2022/05/21 09:56:28;;;;;;;7.63;4.97;;;19.20;90.20;;;;;;4994698;28;20431;-71
2022/05/21 09:59:17;;;;;;;7.87;4.60;;;19.20;90.20;;;;;;4994700;28;20524;-71
2022/05/21 10:01:53;;;;;;;8.33;5.00;;;19.20;90.20;;;;;;5010840;28;20451;-71
2022/05/21 10:04:22;;;;;;;6.20;4.87;;;19.20;90.20;;;;;;5010962;28;20499;-71
2022/05/21 10:07:07;;;;;;;8.50;5.03;;;19.20;90.20;;;;;;5015508;28;20427;-71
2022/05/21 10:12:38;;;;;;;8.73;4.93;;;19.30;90.60;;;;;;5014971;28;20427;-70
2022/05/21 10:15:19;;;;;;;7.50;5.67;;;19.20;90.20;;;;;;5011519;28;20417;-71
2022/05/21 10:18:01;;;;;;;7.20;5.37;;;19.20;90.20;;;;;;5012212;28;20428;-70
2022/05/21 10:20:37;;;;;;;7.37;5.37;;;19.30;90.20;;;;;;5010864;28;20467;-70
2022/05/21 10:23:10;;;;;;;5.97;4.20;;;19.30;90.20;;;;;;4994765;28;20507;-71
2022/05/21 10:25:48;;;;;;;9.03;5.37;;;19.30;90.10;;;;;;5011030;28;21002;-70
2022/05/21 10:28:55;;;;;;;8.93;4.87;;;19.30;90.10;;;;;;5011745;28;20429;-70
2022/05/21 10:31:33;;;;;;;7.10;5.10;;;19.30;90.00;;;;;;5010701;28;21030;-71
2022/05/21 10:34:25;;;;;;;9.33;4.97;;;19.40;90.00;;;;;;5012388;28;20403;-71
2022/05/21 10:37:16;;;;;;;8.90;5.00;;;19.40;90.00;;;;;;5011715;28;20455;-71
2022/05/21 10:39:57;;;;;;;10.33;5.67;;;19.40;89.90;;;;;;4978020;28;20997;-71
2022/05/21 10:42:27;;;;;;;7.73;4.37;;;19.40;89.90;;;;;;5010634;28;20452;-71
2022/05/21 10:45:22;;;;;;;7.03;4.60;;;19.40;89.90;;;;;;5011970;28;20753;-70
2022/05/21 10:48:12;;;;;;;7.40;4.37;;;19.40;89.80;;;;;;5007705;28;20870;-71
2022/05/21 10:51:08;;;;;;;7.43;4.83;;;19.50;89.80;;;;;;5026432;28;20452;-71
2022/05/21 10:53:54;;;;;;;6.70;4.47;;;19.50;89.70;;;;;;5010435;28;20432;-70
2022/05/21 10:56:20;;;;;;;7.60;4.20;;;19.50;89.60;;;;;;5007233;28;20419;-71
2022/05/21 10:58:51;;;;;;;7.97;4.27;;;19.60;90.00;;;;;;5014596;28;20468;-70
2022/05/21 11:01:32;;;;;;;9.50;4.97;;;19.60;89.60;;;;;;5014669;28;20419;-70
2022/05/21 11:04:24;;;;;;;9.07;5.33;;;19.60;89.60;;;;;;5015427;28;20424;-70
2022/05/21 11:07:17;;;;;;;11.53;5.40;;;19.60;89.40;;;;;;4998298;28;20456;-71
2022/05/21 11:09:54;;;;;;;6.50;4.53;;;19.60;89.30;;;;;;5014349;28;20452;-70
2022/05/21 11:12:28;;;;;;;6.90;4.43;;;19.60;89.40;;;;;;5014500;28;20467;-71
2022/05/21 11:15:05;;;;;;;8.43;5.10;;;19.70;89.50;;;;;;5015569;28;20409;-71
2022/05/21 11:17:52;;;;;;;5.40;4.70;;;19.70;89.40;;;;;;5014235;28;20543;-70
2022/05/21 11:20:26;;;;;;;9.23;4.33;;;19.70;89.30;;;;;;5000222;28;20460;-70
2022/05/21 11:23:09;;;;;;;8.20;4.37;;;19.80;89.40;;;;;;5004567;28;20432;-71
2022/05/21 11:25:58;;;;;;;6.67;4.27;;;19.80;89.40;;;;;;4998225;28;20803;-70
2022/05/21 11:28:54;;;;;;;9.37;5.07;;;19.80;89.20;;;;;;5013767;28;20421;-70
2022/05/21 11:37:21;;;;;;;7.00;4.40;;;19.90;88.70;;;;;;5015147;28;20456;-69
2022/05/21 11:39:53;;;;;;;10.43;4.60;;;19.90;88.60;;;;;;5013585;28;20813;-71
2022/05/21 11:42:46;;;;;;;5.47;4.23;;;20.00;88.60;;;;;;5029952;28;20823;-70
2022/05/21 11:45:27;;;;;;;6.67;4.43;;;20.00;88.50;;;;;;5014072;28;20509;-70
2022/05/21 11:48:13;;;;;;;6.60;4.37;;;20.00;88.40;;;;;;5029709;28;20504;-69
2022/05/21 11:50:40;;;;;;;10.00;4.43;;;20.10;88.40;;;;;;5029522;28;20448;-70
2022/05/21 11:53:33;;;;;;;10.53;4.60;;;20.10;88.30;;;;;;4997533;28;20425;-72
2022/05/21 11:56:10;;;;;;;6.87;4.70;;;20.10;88.10;;;;;;5013775;28;20837;-72
2022/05/21 11:59:02;;;;;;;7.43;4.20;;;20.20;88.00;;;;;;5029700;28;20453;-72
2022/05/21 12:01:40;;;;;;;7.60;4.60;;;20.20;87.50;;;;;;5014103;28;20786;-74
2022/05/21 12:04:55;;;;;;;6.87;4.57;;;20.20;87.30;;;;;;5014719;28;20405;-73
2022/05/21 12:07:46;;;;;;;8.93;4.87;;;20.20;87.10;;;;;;5013323;28;20466;-71
2022/05/21 12:10:14;;;;;;;6.27;4.30;;;20.30;86.90;;;;;;5014994;28;20438;-71
2022/05/21 12:13:12;;;;;;;7.47;4.30;;;20.30;86.90;;;;;;5013290;28;20432;-71
2022/05/21 12:15:41;;;;;;;6.30;4.03;;;20.30;86.90;;;;;;5015672;28;20395;-71
2022/05/21 12:18:37;;;;;;;4.77;4.20;;;20.30;86.70;;;;;;5014483;28;20948;-71
2022/05/21 12:21:07;;;;;;;8.87;5.27;;;20.40;86.40;;;;;;5014968;28;20410;-71
2022/05/21 12:23:33;;;;;;;8.83;4.50;;;20.40;86.30;;;;;;5014241;28;20879;-71
2022/05/21 12:26:17;;;;;;;6.20;4.10;;;20.40;86.30;;;;;;5014217;28;20450;-71
2022/05/21 12:29:10;;;;;;;7.10;5.00;;;20.40;86.20;;;;;;5014228;28;20458;-71
2022/05/21 12:31:41;;;;;;;7.07;4.63;;;20.40;85.90;;;;;;5015433;28;20395;-71
2022/05/21 12:34:12;;;;;;;6.03;4.50;;;20.50;85.60;;;;;;5014885;28;20908;-71
2022/05/21 12:36:53;;;;;;;7.73;4.17;;;20.50;85.60;;;;;;4997756;28;20448;-71
2022/05/21 12:39:46;;;;;;;8.90;4.40;;;20.50;85.40;;;;;;5014803;28;20471;-71
2022/05/21 12:42:40;;;;;;;6.93;4.67;;;20.50;85.40;;;;;;5014802;28;20439;-71
2022/05/21 12:45:10;;;;;;;7.17;4.50;;;20.50;85.50;;;;;;5011151;28;20428;-71
2022/05/21 12:47:44;;;;;;;5.67;5.00;;;20.60;85.70;;;;;;4997338;28;20474;-71
2022/05/21 12:50:15;;;;;;;6.83;4.20;;;20.60;85.70;;;;;;5013274;28;20442;-70
2022/05/21 12:52:45;;;;;;;6.00;4.40;;;20.60;85.70;;;;;;5014456;28;20427;-71
2022/05/21 12:55:31;;;;;;;8.87;5.00;;;20.60;85.60;;;;;;5013582;28;20422;-71
2022/05/21 12:58:08;;;;;;;4.97;3.90;;;20.70;85.40;;;;;;5029533;28;20454;-71
2022/05/21 13:00:47;;;;;;;5.00;3.90;;;20.70;85.30;;;;;;5028789;28;20499;-69
2022/05/21 13:03:16;;;;;;;7.17;4.13;;;20.70;84.80;;;;;;5029079;28;20412;-69
2022/05/21 13:05:53;;;;;;;9.93;4.43;;;20.70;84.60;;;;;;5012996;28;20428;-69
2022/05/21 13:08:21;;;;;;;5.17;4.27;;;20.70;84.80;;;;;;5012481;28;20962;-70
2022/05/21 13:10:54;;;;;;;5.13;4.40;;;20.80;85.00;;;;;;5012320;28;20424;-69
2022/05/21 13:13:24;;;;;;;6.37;4.50;;;20.80;85.10;;;;;;5013857;28;20419;-70
2022/05/21 13:16:02;;;;;;;4.73;4.23;;;20.80;85.10;;;;;;5012852;28;20404;-69
2022/05/21 13:18:58;;;;;;;6.77;4.50;;;20.80;85.10;;;;;;5011455;28;20500;-69
2022/05/21 13:21:42;;;;;;;6.70;4.33;;;20.80;85.00;;;;;;5020745;28;20466;-69
2022/05/21 13:24:38;;;;;;;5.80;4.20;;;20.80;84.90;;;;;;5013681;28;20919;-69
2022/05/21 13:27:18;;;;;;;7.70;4.47;;;20.90;85.10;;;;;;5013535;28;20417;-69
2022/05/21 13:29:45;;;;;;;4.83;3.93;;;20.90;85.10;;;;;;5016890;28;20457;-69
2022/05/21 13:32:31;;;;;;;6.23;4.93;;;20.90;85.10;;;;;;5013410;28;20781;-69
2022/05/21 13:35:03;;;;;;;6.20;4.33;;;20.90;84.90;;;;;;5013631;28;20438;-69
2022/05/21 13:37:42;;;;;;;6.97;4.43;;;20.90;84.90;;;;;;5030781;28;20982;-69
2022/05/21 13:40:19;;;;;;;6.20;4.20;;;20.90;85.80;;;;;;5011931;28;20590;-69
2022/05/21 13:42:52;;;;;;;7.07;3.90;;;20.90;85.00;;;;;;5013299;28;20870;-70
2022/05/21 13:45:42;;;;;;;5.47;4.50;;;20.90;85.00;;;;;;5013427;28;20743;-70
2022/05/21 13:48:10;;;;;;;5.13;3.77;;;21.00;84.80;;;;;;5012480;28;20853;-71
2022/05/21 13:50:45;;;;;;;7.40;4.60;;;21.00;84.60;;;;;;5012139;28;20857;-69
2022/05/21 13:53:27;;;;;;;7.23;3.70;;;21.00;84.60;;;;;;5011820;28;20416;-70